Montreux, Switzerland
Current Conditions -  °F | °C
As of 8:50 AM on Friday 21 Nov 2014 (Local Time) from LSMS Reporting Station
Clear Clear  
Wind Chill: 38°   Ceiling: Unl
Heat Index: 41°   Visibility: 6mi
Dew Point: 36°   Wind: 5mph
Humidity: 81%   Direction: 80°E
Pressure: 30.18"   Gusts: NA
Location:  46.45°N, 6.88°E
Report Text: LSMS 210750Z 08004KT 050V110 CAVOK 05/02 Q1022
Loading
Personal Weather Stations






























Interactive Weather Map New forecast layout! Learn more

10-Day Weather Forecast

Advertisements
Track Severe Weather on mobile